Time;durP1;ratioP1;P1;durP2;ratioP2;P2;SDS_P1;SDS_P2;PMS_P1;PMS_P2;Temp;Humidity;BMP_temperature;BMP_pressure;BME280_temperature;BME280_humidity;BME280_pressure;Samples;Min_cycle;Max_cycle;Signal;HPM_P1;HPM_P2
2022/01/09 00:03:29;;;;;;;0.70;0.30;;;4.40;99.90;;;;;;6738274;88;20204;-79
2022/01/09 00:13:30;;;;;;;0.93;0.30;;;4.40;99.90;;;;;;6722432;88;20328;-79
2022/01/09 00:23:31;;;;;;;0.40;0.20;;;4.50;99.90;;;;;;6730550;88;20596;-80
2022/01/09 00:33:32;;;;;;;1.92;0.40;;;4.30;99.90;;;;;;6741199;88;20214;-80
2022/01/09 00:53:36;;;;;;;1.08;0.35;;;4.10;99.90;;;;;;6709428;88;20221;-76
2022/01/09 01:03:36;;;;;;;1.53;0.50;;;4.20;99.90;;;;;;6709409;88;20204;-76
2022/01/09 01:13:37;;;;;;;1.00;0.35;;;4.20;99.90;;;;;;6703865;88;20515;-76
2022/01/09 01:23:37;;;;;;;1.15;0.30;;;4.30;99.90;;;;;;6710151;88;20195;-76
2022/01/09 01:33:38;;;;;;;1.25;0.30;;;4.20;99.90;;;;;;6711415;88;20190;-77
2022/01/09 01:43:39;;;;;;;0.20;0.10;;;4.20;99.90;;;;;;6708277;88;20337;-77
2022/01/09 01:53:40;;;;;;;0.40;0.10;;;4.50;99.90;;;;;;6711114;88;20240;-76
2022/01/09 02:03:40;;;;;;;0.30;0.20;;;4.50;99.90;;;;;;6708189;88;20630;-76
2022/01/09 02:13:45;;;;;;;0.50;0.10;;;4.70;99.90;;;;;;6715591;88;20958;-77
2022/01/09 02:23:47;;;;;;;2.17;0.20;;;4.70;99.90;;;;;;6713868;88;21044;-77
2022/01/09 02:33:47;;;;;;;1.33;0.20;;;4.50;99.90;;;;;;6711629;88;20190;-76
2022/01/09 02:43:48;;;;;;;1.42;0.30;;;4.10;99.90;;;;;;6718699;88;20368;-76
2022/01/09 02:53:50;;;;;;;2.37;0.47;;;3.90;99.90;;;;;;6711152;88;20797;-77
2022/01/09 03:03:50;;;;;;;2.37;0.55;;;4.00;99.90;;;;;;6716320;88;20187;-77
2022/01/09 03:13:53;;;;;;;4.25;0.80;;;4.10;99.90;;;;;;6711048;88;20212;-78
2022/01/09 03:23:54;;;;;;;3.65;0.47;;;4.10;99.90;;;;;;6716409;88;20214;-77
2022/01/09 03:33:54;;;;;;;3.55;0.60;;;4.10;99.90;;;;;;6709098;88;20369;-76
2022/01/09 03:43:55;;;;;;;2.05;0.70;;;4.00;99.90;;;;;;6714699;88;20417;-78
2022/01/09 03:53:56;;;;;;;3.87;1.10;;;4.10;99.90;;;;;;6713030;88;20191;-78
2022/01/09 04:03:56;;;;;;;5.57;1.40;;;4.20;99.90;;;;;;6714668;88;20261;-77
2022/01/09 04:13:57;;;;;;;6.18;1.55;;;4.10;99.90;;;;;;6710505;88;20239;-76
2022/01/09 04:23:57;;;;;;;8.70;1.58;;;4.20;99.90;;;;;;6718426;88;20174;-77
2022/01/09 04:33:58;;;;;;;9.70;2.00;;;4.20;99.90;;;;;;6716587;88;20158;-78
2022/01/09 04:43:58;;;;;;;16.23;2.75;;;4.30;99.90;;;;;;6708661;88;20273;-76
2022/01/09 04:53:59;;;;;;;19.77;2.80;;;4.50;99.90;;;;;;6713883;88;20333;-76
2022/01/09 05:04:00;;;;;;;22.20;3.20;;;4.80;99.90;;;;;;6721610;88;20501;-76
2022/01/09 05:14:00;;;;;;;19.08;2.92;;;4.80;99.90;;;;;;6716857;88;20298;-78
2022/01/09 05:24:01;;;;;;;18.83;2.80;;;4.90;99.90;;;;;;6715666;88;20723;-77
2022/01/09 05:34:02;;;;;;;16.55;2.97;;;4.80;99.90;;;;;;6714499;88;21055;-77
2022/01/09 05:44:02;;;;;;;12.25;2.45;;;4.90;99.90;;;;;;6713703;88;20984;-77
2022/01/09 05:54:03;;;;;;;16.42;2.17;;;5.00;99.90;;;;;;6709280;88;20222;-76
2022/01/09 06:04:05;;;;;;;14.43;2.53;;;5.00;99.90;;;;;;6710820;88;20331;-76
2022/01/09 06:14:06;;;;;;;13.90;2.17;;;5.00;99.90;;;;;;6723380;88;20524;-77
2022/01/09 06:24:06;;;;;;;13.00;2.22;;;5.10;99.90;;;;;;6717275;88;21221;-76
2022/01/09 06:34:07;;;;;;;16.52;2.42;;;5.00;99.90;;;;;;6706853;88;20234;-77
2022/01/09 06:44:07;;;;;;;13.23;2.40;;;4.90;99.90;;;;;;6713078;88;20560;-76
2022/01/09 06:54:08;;;;;;;11.77;2.15;;;4.90;99.90;;;;;;6710574;88;20263;-78
2022/01/09 07:04:08;;;;;;;11.80;2.20;;;4.90;99.90;;;;;;6704774;88;20240;-75
2022/01/09 07:14:09;;;;;;;8.60;2.10;;;4.90;99.90;;;;;;6711848;88;20186;-77
2022/01/09 07:24:09;;;;;;;8.85;1.70;;;4.90;99.90;;;;;;6705047;88;20245;-76
2022/01/09 07:34:10;;;;;;;8.75;1.55;;;4.80;99.90;;;;;;6706040;88;20198;-77
2022/01/09 07:44:10;;;;;;;7.15;1.50;;;4.60;99.90;;;;;;6704473;88;20206;-76
2022/01/09 07:54:11;;;;;;;8.70;1.58;;;4.40;99.90;;;;;;6701902;88;20203;-75
2022/01/09 08:04:11;;;;;;;8.43;1.45;;;4.40;99.90;;;;;;6705423;88;20770;-76
2022/01/09 08:14:12;;;;;;;7.80;2.10;;;4.40;99.90;;;;;;6698650;88;20201;-75
2022/01/09 08:24:14;;;;;;;14.10;2.10;;;4.40;99.90;;;;;;6700337;88;20243;-77
2022/01/09 08:34:15;;;;;;;6.40;1.95;;;4.70;99.90;;;;;;6689824;88;20647;-77
2022/01/09 08:44:15;;;;;;;5.15;1.40;;;4.80;99.90;;;;;;6686058;88;20717;-76
2022/01/09 08:54:16;;;;;;;7.95;1.70;;;4.80;99.90;;;;;;6685587;88;20198;-76
2022/01/09 09:04:17;;;;;;;8.70;1.35;;;5.10;99.90;;;;;;6684459;89;20235;-75
2022/01/09 09:14:17;;;;;;;9.57;1.65;;;5.20;99.90;;;;;;6682330;88;20672;-76
2022/01/09 09:24:18;;;;;;;6.93;1.80;;;5.20;99.90;;;;;;6702529;88;20206;-76
2022/01/09 09:34:19;;;;;;;10.30;1.42;;;5.30;99.90;;;;;;6699283;88;20306;-77
2022/01/09 09:44:19;;;;;;;4.12;1.50;;;5.40;99.90;;;;;;6706831;88;20185;-77
2022/01/09 09:54:20;;;;;;;7.68;1.30;;;5.40;99.90;;;;;;6704041;88;20235;-76
2022/01/09 10:04:22;;;;;;;8.57;1.52;;;5.40;99.90;;;;;;6702174;88;20627;-76
2022/01/09 10:14:32;;;;;;;5.28;1.67;;;5.50;99.90;;;;;;6694119;88;20190;-76
2022/01/09 10:24:32;;;;;;;5.95;1.23;;;5.60;99.90;;;;;;6690276;88;20376;-76
2022/01/09 10:34:33;;;;;;;5.00;1.30;;;5.70;99.90;;;;;;6691445;88;20287;-76
2022/01/09 10:44:37;;;;;;;9.60;1.35;;;5.70;99.90;;;;;;6685688;88;20216;-75
2022/01/09 10:54:40;;;;;;;11.05;1.75;;;5.60;99.90;;;;;;6700015;88;20676;-74
2022/01/09 11:04:43;;;;;;;6.40;1.42;;;5.80;99.90;;;;;;6685748;88;20210;-75
2022/01/09 11:14:44;;;;;;;8.82;1.80;;;6.10;99.90;;;;;;6687139;88;20270;-75
2022/01/09 11:25:22;;;;;;;6.30;1.58;;;7.50;99.90;;;;;;6689815;88;20171;-75
2022/01/09 11:35:25;;;;;;;6.82;1.60;;;7.30;99.90;;;;;;6694043;88;20299;-76
2022/01/09 11:45:45;;;;;;;6.40;1.37;;;7.50;99.90;;;;;;6691127;88;20220;-75
2022/01/09 11:55:48;;;;;;;12.82;2.25;;;7.10;99.90;;;;;;6702185;88;20690;-76
2022/01/09 12:06:05;;;;;;;6.75;1.83;;;6.80;99.90;;;;;;6697133;88;20307;-77
2022/01/09 12:16:07;;;;;;;10.02;1.20;;;6.80;99.90;;;;;;6694996;88;20252;-74
2022/01/09 12:26:26;;;;;;;7.28;1.67;;;6.60;99.90;;;;;;6697115;88;20236;-75
2022/01/09 12:36:31;;;;;;;9.57;1.27;;;6.80;99.90;;;;;;6693890;88;20259;-74
2022/01/09 12:46:38;;;;;;;9.52;1.70;;;6.70;99.90;;;;;;6722688;77;20201;-77
2022/01/09 12:56:39;;;;;;;8.55;1.80;;;6.70;99.90;;;;;;6717235;88;20663;-76
2022/01/09 13:06:40;;;;;;;11.35;1.73;;;6.40;99.90;;;;;;6715171;88;20177;-76
2022/01/09 13:16:41;;;;;;;11.18;2.20;;;6.40;99.90;;;;;;6725495;88;20260;-76
2022/01/09 13:26:56;;;;;;;10.43;2.10;;;6.80;99.90;;;;;;6735928;88;20316;-76
2022/01/09 13:36:59;;;;;;;9.57;1.90;;;7.10;99.90;;;;;;6731966;88;20330;-77
2022/01/09 13:47:17;;;;;;;5.70;1.48;;;7.20;99.90;;;;;;6714655;88;20271;-76
2022/01/09 13:57:21;;;;;;;8.80;1.85;;;6.80;99.90;;;;;;6713556;88;20239;-75
2022/01/09 14:07:25;;;;;;;10.25;1.48;;;6.70;99.90;;;;;;6716096;88;20178;-77
2022/01/09 14:17:31;;;;;;;8.93;1.60;;;6.70;99.90;;;;;;6714740;88;20234;-77
2022/01/09 14:27:36;;;;;;;9.00;1.87;;;6.60;99.90;;;;;;6716924;88;20178;-77
2022/01/09 14:37:46;;;;;;;9.95;2.08;;;6.70;99.90;;;;;;6717494;88;20364;-77
2022/01/09 14:47:48;;;;;;;10.15;1.65;;;6.60;99.90;;;;;;6719899;88;22278;-77
2022/01/09 15:05:55;;;;;;;9.48;1.58;;;6.30;99.90;;;;;;6784512;86;20295;-78
2022/01/09 15:15:58;;;;;;;10.38;1.55;;;6.10;99.90;;;;;;6759325;87;20307;-77
2022/01/09 15:25:58;;;;;;;10.38;1.50;;;6.20;99.90;;;;;;6759606;87;20209;-77
2022/01/09 15:35:59;;;;;;;9.95;1.65;;;6.20;99.90;;;;;;6763642;87;20195;-77
2022/01/09 15:46:00;;;;;;;9.15;1.80;;;5.90;99.90;;;;;;6761439;87;20308;-76
2022/01/09 15:56:00;;;;;;;5.87;1.62;;;5.70;99.90;;;;;;6760794;87;20176;-77
2022/01/09 16:06:03;;;;;;;9.43;1.70;;;5.50;99.90;;;;;;6764241;87;20562;-78
2022/01/09 16:16:04;;;;;;;8.68;2.00;;;5.50;99.90;;;;;;6761425;87;20211;-78
2022/01/09 16:26:05;;;;;;;7.43;2.10;;;5.30;99.90;;;;;;6757770;88;20208;-77
2022/01/09 16:36:14;;;;;;;11.50;2.28;;;5.40;99.90;;;;;;6752194;88;20189;-77
2022/01/09 16:46:15;;;;;;;9.70;2.47;;;5.40;99.90;;;;;;6756746;88;20211;-78
2022/01/09 16:56:15;;;;;;;9.90;2.20;;;5.30;99.90;;;;;;6758292;88;20615;-79
2022/01/09 17:06:17;;;;;;;7.22;2.30;;;5.30;99.90;;;;;;6756915;88;20676;-79
2022/01/09 17:16:18;;;;;;;9.30;2.40;;;5.30;99.90;;;;;;6757130;88;20229;-77
2022/01/09 17:26:19;;;;;;;9.15;2.37;;;5.40;99.90;;;;;;6754293;88;20204;-76
2022/01/09 17:36:20;;;;;;;11.23;2.50;;;5.30;99.90;;;;;;6752263;88;20218;-76
2022/01/09 17:46:22;;;;;;;9.75;2.65;;;5.30;99.90;;;;;;6754943;88;20221;-77
2022/01/09 17:56:23;;;;;;;14.65;3.25;;;5.30;99.90;;;;;;6757068;88;20209;-76
2022/01/09 18:06:25;;;;;;;11.38;2.42;;;5.00;99.90;;;;;;6747232;88;20225;-75
2022/01/09 18:16:25;;;;;;;8.38;2.70;;;4.80;99.90;;;;;;6746286;88;20197;-75
2022/01/09 18:26:26;;;;;;;10.90;2.50;;;4.50;99.90;;;;;;6745238;88;20590;-75
2022/01/09 18:36:26;;;;;;;12.40;2.90;;;4.50;99.90;;;;;;6742765;88;20200;-78
2022/01/09 18:46:27;;;;;;;11.50;2.85;;;4.40;99.90;;;;;;6748912;88;20219;-77
2022/01/09 18:56:28;;;;;;;12.68;3.17;;;4.30;99.90;;;;;;6728705;76;20216;-76
2022/01/09 19:06:29;;;;;;;11.60;3.08;;;4.20;99.90;;;;;;6722059;88;20186;-77
2022/01/09 19:16:31;;;;;;;12.32;3.20;;;4.10;99.90;;;;;;6724287;88;20543;-75
2022/01/09 19:26:31;;;;;;;10.63;3.90;;;4.30;99.90;;;;;;6717535;88;20191;-75
2022/01/09 19:36:32;;;;;;;19.10;4.95;;;4.20;99.90;;;;;;6714455;88;20190;-76
2022/01/09 19:46:35;;;;;;;14.75;4.15;;;4.20;99.90;;;;;;6717579;88;20206;-76
2022/01/09 19:56:36;;;;;;;16.02;3.72;;;4.20;99.90;;;;;;6720470;88;20849;-77
2022/01/09 20:06:38;;;;;;;15.98;3.92;;;4.00;99.90;;;;;;6712568;88;20273;-76
2022/01/09 20:16:38;;;;;;;11.93;3.70;;;4.30;99.90;;;;;;6715555;88;20260;-75
2022/01/09 20:26:42;;;;;;;13.10;3.87;;;4.40;99.90;;;;;;6719313;88;20219;-75
2022/01/09 20:36:46;;;;;;;15.57;3.80;;;4.50;99.90;;;;;;6716430;88;20313;-75
2022/01/09 20:46:48;;;;;;;17.87;4.87;;;4.50;99.90;;;;;;6713869;88;20608;-75
2022/01/09 20:56:49;;;;;;;12.40;3.40;;;4.40;99.90;;;;;;6716381;88;20270;-73
2022/01/09 21:06:49;;;;;;;15.20;2.92;;;4.40;99.90;;;;;;6715982;88;20240;-74
2022/01/09 21:16:50;;;;;;;12.37;2.72;;;4.40;99.90;;;;;;6711115;88;20186;-75
2022/01/09 21:26:50;;;;;;;11.05;2.45;;;4.40;99.90;;;;;;6711691;88;20229;-74
2022/01/09 21:36:51;;;;;;;13.25;2.95;;;4.40;99.90;;;;;;6714908;88;20336;-75
2022/01/09 21:46:52;;;;;;;14.52;3.20;;;4.30;99.90;;;;;;6714927;88;20303;-75
2022/01/09 21:56:54;;;;;;;11.65;2.80;;;4.20;99.90;;;;;;6718447;88;20190;-75
2022/01/09 22:06:55;;;;;;;7.43;2.50;;;4.10;99.90;;;;;;6717812;88;20207;-75
2022/01/09 22:16:58;;;;;;;11.48;2.65;;;4.10;99.90;;;;;;6721340;88;20209;-75
2022/01/09 22:26:59;;;;;;;14.35;2.70;;;3.90;99.90;;;;;;6707478;88;20217;-75
2022/01/09 22:37:00;;;;;;;8.02;2.50;;;3.80;99.90;;;;;;6707099;88;20320;-75
2022/01/09 22:47:01;;;;;;;9.85;2.58;;;3.70;99.90;;;;;;6705757;88;20685;-75
2022/01/09 22:57:02;;;;;;;13.07;2.53;;;3.80;99.90;;;;;;6713634;88;20219;-75
2022/01/09 23:07:02;;;;;;;14.18;2.62;;;3.60;99.90;;;;;;6716251;88;20529;-75
2022/01/09 23:17:03;;;;;;;12.60;3.35;;;3.70;99.90;;;;;;6720077;88;20202;-75
2022/01/09 23:27:05;;;;;;;13.95;3.60;;;3.50;99.90;;;;;;6733692;88;20240;-75
2022/01/09 23:47:11;;;;;;;12.90;3.15;;;3.20;99.90;;;;;;6717040;88;21117;-75
2022/01/09 23:57:12;;;;;;;10.65;3.03;;;3.10;99.90;;;;;;6714444;88;20457;-75
